sensor_id;sensor_type;location;lat;lon;timestamp;temperature;humidity
21163;DHT22;10739;52.198;20.908;2022-12-29T00:00:06;5.70;99.90
21163;DHT22;10739;52.198;20.908;2022-12-29T00:02:54;5.70;99.90
21163;DHT22;10739;52.198;20.908;2022-12-29T00:05:40;5.70;99.90
21163;DHT22;10739;52.198;20.908;2022-12-29T00:08:28;5.70;99.90
21163;DHT22;10739;52.198;20.908;2022-12-29T00:11:34;5.70;99.90
21163;DHT22;10739;52.198;20.908;2022-12-29T00:14:22;5.70;99.90
21163;DHT22;10739;52.198;20.908;2022-12-29T00:17:27;5.70;99.90
21163;DHT22;10739;52.198;20.908;2022-12-29T00:20:13;5.70;99.90
21163;DHT22;10739;52.198;20.908;2022-12-29T00:23:18;5.70;99.90
21163;DHT22;10739;52.198;20.908;2022-12-29T00:26:23;5.70;99.90
21163;DHT22;10739;52.198;20.908;2022-12-29T00:29:27;5.70;99.90
21163;DHT22;10739;52.198;20.908;2022-12-29T00:32:32;5.70;99.90
21163;DHT22;10739;52.198;20.908;2022-12-29T00:35:52;5.70;99.90
21163;DHT22;10739;52.198;20.908;2022-12-29T00:38:47;5.70;99.90
21163;DHT22;10739;52.198;20.908;2022-12-29T00:42:06;5.70;99.90
21163;DHT22;10739;52.198;20.908;2022-12-29T00:45:11;5.70;99.90
21163;DHT22;10739;52.198;20.908;2022-12-29T00:47:58;5.70;99.90
21163;DHT22;10739;52.198;20.908;2022-12-29T00:50:44;5.80;99.90
21163;DHT22;10739;52.198;20.908;2022-12-29T00:53:31;5.80;99.90
21163;DHT22;10739;52.198;20.908;2022-12-29T00:56:17;5.80;99.90
21163;DHT22;10739;52.198;20.908;2022-12-29T00:59:06;5.90;99.90
21163;DHT22;10739;52.198;20.908;2022-12-29T01:01:55;5.90;99.90
21163;DHT22;10739;52.198;20.908;2022-12-29T01:04:42;5.90;99.90
21163;DHT22;10739;52.198;20.908;2022-12-29T01:07:28;5.90;99.90
21163;DHT22;10739;52.198;20.908;2022-12-29T01:10:15;6.00;99.90
21163;DHT22;10739;52.198;20.908;2022-12-29T01:13:01;6.00;99.90
21163;DHT22;10739;52.198;20.908;2022-12-29T01:15:51;5.90;99.90
21163;DHT22;10739;52.198;20.908;2022-12-29T01:18:38;5.90;99.90
21163;DHT22;10739;52.198;20.908;2022-12-29T01:21:25;5.90;99.90
21163;DHT22;10739;52.198;20.908;2022-12-29T01:24:11;5.90;99.90
21163;DHT22;10739;52.198;20.908;2022-12-29T01:26:59;5.90;99.90
21163;DHT22;10739;52.198;20.908;2022-12-29T01:29:45;5.80;99.90
21163;DHT22;10739;52.198;20.908;2022-12-29T01:32:31;5.70;99.90
21163;DHT22;10739;52.198;20.908;2022-12-29T01:35:18;5.70;99.90
21163;DHT22;10739;52.198;20.908;2022-12-29T01:38:04;5.70;99.90
21163;DHT22;10739;52.198;20.908;2022-12-29T01:40:51;5.70;99.90
21163;DHT22;10739;52.198;20.908;2022-12-29T01:43:49;5.70;99.90
21163;DHT22;10739;52.198;20.908;2022-12-29T01:46:43;5.60;99.90
21163;DHT22;10739;52.198;20.908;2022-12-29T01:49:34;5.60;99.90
21163;DHT22;10739;52.198;20.908;2022-12-29T01:52:22;5.60;99.90
21163;DHT22;10739;52.198;20.908;2022-12-29T01:55:12;5.60;99.90
21163;DHT22;10739;52.198;20.908;2022-12-29T01:58:04;5.60;99.90
21163;DHT22;10739;52.198;20.908;2022-12-29T02:00:52;5.60;99.90
21163;DHT22;10739;52.198;20.908;2022-12-29T02:03:38;5.50;99.90
21163;DHT22;10739;52.198;20.908;2022-12-29T02:07:21;5.50;99.90
21163;DHT22;10739;52.198;20.908;2022-12-29T02:10:04;5.40;99.90
21163;DHT22;10739;52.198;20.908;2022-12-29T02:12:51;5.40;99.90
21163;DHT22;10739;52.198;20.908;2022-12-29T02:23:24;5.20;99.90
21163;DHT22;10739;52.198;20.908;2022-12-29T02:29:34;5.20;99.90
21163;DHT22;10739;52.198;20.908;2022-12-29T02:46:52;4.90;99.90
21163;DHT22;10739;52.198;20.908;2022-12-29T02:52:42;4.80;99.90
21163;DHT22;10739;52.198;20.908;2022-12-29T02:55:35;4.70;99.90
21163;DHT22;10739;52.198;20.908;2022-12-29T02:58:23;4.60;99.90
21163;DHT22;10739;52.198;20.908;2022-12-29T03:01:35;4.60;99.90
21163;DHT22;10739;52.198;20.908;2022-12-29T03:04:35;4.50;99.90
21163;DHT22;10739;52.198;20.908;2022-12-29T03:11:04;4.40;99.90
21163;DHT22;10739;52.198;20.908;2022-12-29T03:14:28;4.40;99.90
21163;DHT22;10739;52.198;20.908;2022-12-29T03:18:04;4.30;99.90
21163;DHT22;10739;52.198;20.908;2022-12-29T03:24:34;4.20;99.90
21163;DHT22;10739;52.198;20.908;2022-12-29T03:27:29;4.20;99.90
21163;DHT22;10739;52.198;20.908;2022-12-29T03:30:20;4.20;99.90
21163;DHT22;10739;52.198;20.908;2022-12-29T03:33:10;4.20;99.90
21163;DHT22;10739;52.198;20.908;2022-12-29T03:36:04;4.20;99.90
21163;DHT22;10739;52.198;20.908;2022-12-29T03:39:08;4.20;99.90
21163;DHT22;10739;52.198;20.908;2022-12-29T03:45:10;4.10;99.90
21163;DHT22;10739;52.198;20.908;2022-12-29T03:47:57;4.20;99.90
21163;DHT22;10739;52.198;20.908;2022-12-29T03:50:43;4.00;99.90
21163;DHT22;10739;52.198;20.908;2022-12-29T03:53:29;4.00;99.90
21163;DHT22;10739;52.198;20.908;2022-12-29T03:56:16;4.00;99.90
21163;DHT22;10739;52.198;20.908;2022-12-29T03:59:02;4.00;99.90
21163;DHT22;10739;52.198;20.908;2022-12-29T04:01:49;4.00;99.90
21163;DHT22;10739;52.198;20.908;2022-12-29T04:04:35;4.00;99.90
21163;DHT22;10739;52.198;20.908;2022-12-29T04:07:22;4.00;99.90
21163;DHT22;10739;52.198;20.908;2022-12-29T04:10:08;4.10;99.90
21163;DHT22;10739;52.198;20.908;2022-12-29T04:12:55;4.00;99.90
21163;DHT22;10739;52.198;20.908;2022-12-29T04:15:43;4.00;99.90
21163;DHT22;10739;52.198;20.908;2022-12-29T04:18:30;4.00;99.90
21163;DHT22;10739;52.198;20.908;2022-12-29T04:21:17;4.00;99.90
21163;DHT22;10739;52.198;20.908;2022-12-29T04:24:04;4.00;99.90
21163;DHT22;10739;52.198;20.908;2022-12-29T04:26:54;4.00;99.90
21163;DHT22;10739;52.198;20.908;2022-12-29T04:29:40;4.00;99.90
21163;DHT22;10739;52.198;20.908;2022-12-29T04:32:27;4.00;99.90
21163;DHT22;10739;52.198;20.908;2022-12-29T04:35:13;4.10;99.90
21163;DHT22;10739;52.198;20.908;2022-12-29T04:38:00;4.10;99.90
21163;DHT22;10739;52.198;20.908;2022-12-29T04:40:47;4.00;99.90
21163;DHT22;10739;52.198;20.908;2022-12-29T04:43:34;4.00;99.90
21163;DHT22;10739;52.198;20.908;2022-12-29T04:46:20;3.90;99.90
21163;DHT22;10739;52.198;20.908;2022-12-29T04:49:06;3.90;99.90
21163;DHT22;10739;52.198;20.908;2022-12-29T04:51:54;3.90;99.90
21163;DHT22;10739;52.198;20.908;2022-12-29T04:54:40;3.90;99.90
21163;DHT22;10739;52.198;20.908;2022-12-29T04:57:27;4.00;99.90
21163;DHT22;10739;52.198;20.908;2022-12-29T05:00:14;4.00;99.90
21163;DHT22;10739;52.198;20.908;2022-12-29T05:03:00;4.00;99.90
21163;DHT22;10739;52.198;20.908;2022-12-29T05:05:47;4.00;99.90
21163;DHT22;10739;52.198;20.908;2022-12-29T05:08:33;3.90;99.90
21163;DHT22;10739;52.198;20.908;2022-12-29T05:11:19;4.00;99.90
21163;DHT22;10739;52.198;20.908;2022-12-29T05:14:06;4.00;99.90
21163;DHT22;10739;52.198;20.908;2022-12-29T05:16:52;4.00;99.90
21163;DHT22;10739;52.198;20.908;2022-12-29T05:19:39;4.00;99.90
21163;DHT22;10739;52.198;20.908;2022-12-29T05:22:25;4.00;99.90
21163;DHT22;10739;52.198;20.908;2022-12-29T05:25:11;4.00;99.90
21163;DHT22;10739;52.198;20.908;2022-12-29T05:27:58;4.00;99.90
21163;DHT22;10739;52.198;20.908;2022-12-29T05:30:50;4.00;99.90
21163;DHT22;10739;52.198;20.908;2022-12-29T05:33:37;4.10;99.90
21163;DHT22;10739;52.198;20.908;2022-12-29T05:36:23;4.10;99.90
21163;DHT22;10739;52.198;20.908;2022-12-29T05:39:09;4.10;99.90
21163;DHT22;10739;52.198;20.908;2022-12-29T05:41:56;4.10;99.90
21163;DHT22;10739;52.198;20.908;2022-12-29T05:44:42;4.00;99.90
21163;DHT22;10739;52.198;20.908;2022-12-29T05:47:29;4.10;99.90
21163;DHT22;10739;52.198;20.908;2022-12-29T05:50:15;4.00;99.90
21163;DHT22;10739;52.198;20.908;2022-12-29T05:53:01;4.10;99.90
21163;DHT22;10739;52.198;20.908;2022-12-29T05:55:49;4.10;99.90
21163;DHT22;10739;52.198;20.908;2022-12-29T05:58:35;4.10;99.90
21163;DHT22;10739;52.198;20.908;2022-12-29T06:01:21;4.00;99.90
21163;DHT22;10739;52.198;20.908;2022-12-29T06:04:08;3.10;99.90
21163;DHT22;10739;52.198;20.908;2022-12-29T06:06:54;4.10;99.90
21163;DHT22;10739;52.198;20.908;2022-12-29T06:09:41;4.10;99.90
21163;DHT22;10739;52.198;20.908;2022-12-29T06:12:27;4.10;99.90
21163;DHT22;10739;52.198;20.908;2022-12-29T06:15:14;4.10;99.90
21163;DHT22;10739;52.198;20.908;2022-12-29T06:18:00;4.10;99.90
21163;DHT22;10739;52.198;20.908;2022-12-29T06:20:47;4.20;99.90
21163;DHT22;10739;52.198;20.908;2022-12-29T06:23:33;4.20;99.90
21163;DHT22;10739;52.198;20.908;2022-12-29T06:26:20;4.20;99.90
21163;DHT22;10739;52.198;20.908;2022-12-29T06:29:07;4.30;99.90
21163;DHT22;10739;52.198;20.908;2022-12-29T06:31:54;4.30;99.90
21163;DHT22;10739;52.198;20.908;2022-12-29T06:34:43;4.30;99.90
21163;DHT22;10739;52.198;20.908;2022-12-29T06:37:30;4.30;99.90
21163;DHT22;10739;52.198;20.908;2022-12-29T06:40:16;4.20;99.90
21163;DHT22;10739;52.198;20.908;2022-12-29T06:43:03;4.30;99.90
21163;DHT22;10739;52.198;20.908;2022-12-29T06:45:50;4.30;99.90
21163;DHT22;10739;52.198;20.908;2022-12-29T06:48:36;4.30;99.90
21163;DHT22;10739;52.198;20.908;2022-12-29T06:51:22;4.30;99.90
21163;DHT22;10739;52.198;20.908;2022-12-29T06:54:09;4.40;99.90
21163;DHT22;10739;52.198;20.908;2022-12-29T06:56:55;4.40;99.90
21163;DHT22;10739;52.198;20.908;2022-12-29T06:59:42;4.50;99.90
21163;DHT22;10739;52.198;20.908;2022-12-29T07:02:28;4.50;99.90
21163;DHT22;10739;52.198;20.908;2022-12-29T07:05:15;4.60;99.90
21163;DHT22;10739;52.198;20.908;2022-12-29T07:08:01;4.60;99.90
21163;DHT22;10739;52.198;20.908;2022-12-29T07:10:48;4.60;99.90
21163;DHT22;10739;52.198;20.908;2022-12-29T07:13:14;4.70;99.90
21163;DHT22;10739;52.198;20.908;2022-12-29T07:15:40;4.70;99.90
21163;DHT22;10739;52.198;20.908;2022-12-29T07:18:07;4.70;99.90
21163;DHT22;10739;52.198;20.908;2022-12-29T07:20:33;4.80;99.90
21163;DHT22;10739;52.198;20.908;2022-12-29T07:23:00;4.80;99.90
21163;DHT22;10739;52.198;20.908;2022-12-29T07:25:26;4.90;99.90
21163;DHT22;10739;52.198;20.908;2022-12-29T07:27:56;4.90;99.90
21163;DHT22;10739;52.198;20.908;2022-12-29T07:30:22;5.00;99.90
21163;DHT22;10739;52.198;20.908;2022-12-29T07:32:48;5.00;99.90
21163;DHT22;10739;52.198;20.908;2022-12-29T07:35:15;5.00;99.90
21163;DHT22;10739;52.198;20.908;2022-12-29T07:37:41;5.10;99.90
21163;DHT22;10739;52.198;20.908;2022-12-29T07:40:09;5.10;99.90
21163;DHT22;10739;52.198;20.908;2022-12-29T07:42:39;5.10;99.90
21163;DHT22;10739;52.198;20.908;2022-12-29T07:45:06;5.10;99.90
21163;DHT22;10739;52.198;20.908;2022-12-29T07:47:32;5.10;99.90
21163;DHT22;10739;52.198;20.908;2022-12-29T07:49:59;5.10;99.90
21163;DHT22;10739;52.198;20.908;2022-12-29T07:52:25;5.20;99.90
21163;DHT22;10739;52.198;20.908;2022-12-29T07:54:51;5.20;99.90
21163;DHT22;10739;52.198;20.908;2022-12-29T07:57:18;5.20;99.90
21163;DHT22;10739;52.198;20.908;2022-12-29T07:59:44;5.20;99.90
21163;DHT22;10739;52.198;20.908;2022-12-29T08:02:11;5.20;99.90
21163;DHT22;10739;52.198;20.908;2022-12-29T08:04:37;5.20;99.90
21163;DHT22;10739;52.198;20.908;2022-12-29T08:07:04;5.30;99.90
21163;DHT22;10739;52.198;20.908;2022-12-29T08:09:31;5.30;99.90
21163;DHT22;10739;52.198;20.908;2022-12-29T08:11:57;5.40;99.90
21163;DHT22;10739;52.198;20.908;2022-12-29T08:14:23;5.40;99.90
21163;DHT22;10739;52.198;20.908;2022-12-29T08:16:50;5.40;99.90
21163;DHT22;10739;52.198;20.908;2022-12-29T08:19:16;5.50;99.90
21163;DHT22;10739;52.198;20.908;2022-12-29T08:21:43;5.60;99.90
21163;DHT22;10739;52.198;20.908;2022-12-29T08:24:09;5.60;99.90
21163;DHT22;10739;52.198;20.908;2022-12-29T08:26:38;5.70;99.30
21163;DHT22;10739;52.198;20.908;2022-12-29T08:29:07;5.70;99.50
21163;DHT22;10739;52.198;20.908;2022-12-29T08:31:34;5.80;98.80
21163;DHT22;10739;52.198;20.908;2022-12-29T08:34:00;5.80;98.90
21163;DHT22;10739;52.198;20.908;2022-12-29T08:36:29;5.80;98.00
21163;DHT22;10739;52.198;20.908;2022-12-29T08:38:56;5.90;97.90
21163;DHT22;10739;52.198;20.908;2022-12-29T08:41:28;6.00;97.20
21163;DHT22;10739;52.198;20.908;2022-12-29T08:43:59;6.00;98.40
21163;DHT22;10739;52.198;20.908;2022-12-29T08:46:26;6.00;97.00
21163;DHT22;10739;52.198;20.908;2022-12-29T08:48:54;6.10;96.60
21163;DHT22;10739;52.198;20.908;2022-12-29T08:51:21;6.20;96.70
21163;DHT22;10739;52.198;20.908;2022-12-29T08:53:47;6.20;95.80
21163;DHT22;10739;52.198;20.908;2022-12-29T08:56:14;6.20;94.90
21163;DHT22;10739;52.198;20.908;2022-12-29T08:58:43;6.30;96.00
21163;DHT22;10739;52.198;20.908;2022-12-29T09:01:10;6.30;94.00
21163;DHT22;10739;52.198;20.908;2022-12-29T09:03:36;6.30;95.60
21163;DHT22;10739;52.198;20.908;2022-12-29T09:06:03;6.30;95.00
21163;DHT22;10739;52.198;20.908;2022-12-29T09:08:30;6.40;96.10
21163;DHT22;10739;52.198;20.908;2022-12-29T09:13:39;6.50;95.50
21163;DHT22;10739;52.198;20.908;2022-12-29T09:16:08;6.50;94.90
21163;DHT22;10739;52.198;20.908;2022-12-29T09:18:34;6.60;95.40
21163;DHT22;10739;52.198;20.908;2022-12-29T09:21:03;6.60;93.90
21163;DHT22;10739;52.198;20.908;2022-12-29T09:23:31;6.60;94.50
21163;DHT22;10739;52.198;20.908;2022-12-29T09:25:58;6.70;94.10
21163;DHT22;10739;52.198;20.908;2022-12-29T09:28:25;6.80;94.00
21163;DHT22;10739;52.198;20.908;2022-12-29T09:30:52;6.80;93.50
21163;DHT22;10739;52.198;20.908;2022-12-29T09:33:18;6.80;93.40
21163;DHT22;10739;52.198;20.908;2022-12-29T09:35:50;6.80;94.50
21163;DHT22;10739;52.198;20.908;2022-12-29T09:38:18;6.80;94.00
21163;DHT22;10739;52.198;20.908;2022-12-29T09:40:50;6.80;93.30
21163;DHT22;10739;52.198;20.908;2022-12-29T09:48:50;7.00;92.90
21163;DHT22;10739;52.198;20.908;2022-12-29T09:51:34;7.00;93.50
21163;DHT22;10739;52.198;20.908;2022-12-29T09:56:55;7.00;92.50
21163;DHT22;10739;52.198;20.908;2022-12-29T09:59:26;7.00;93.20
21163;DHT22;10739;52.198;20.908;2022-12-29T10:08:21;7.00;93.20
21163;DHT22;10739;52.198;20.908;2022-12-29T10:23:16;7.00;93.40
21163;DHT22;10739;52.198;20.908;2022-12-29T10:25:57;7.00;92.60
21163;DHT22;10739;52.198;20.908;2022-12-29T10:28:39;7.00;93.20
21163;DHT22;10739;52.198;20.908;2022-12-29T10:31:23;7.00;92.40
21163;DHT22;10739;52.198;20.908;2022-12-29T10:34:03;6.30;92.10
21163;DHT22;10739;52.198;20.908;2022-12-29T10:36:47;7.10;93.70
21163;DHT22;10739;52.198;20.908;2022-12-29T10:39:37;7.10;92.00
21163;DHT22;10739;52.198;20.908;2022-12-29T10:45:10;7.20;93.40
21163;DHT22;10739;52.198;20.908;2022-12-29T10:48:18;7.30;91.40
21163;DHT22;10739;52.198;20.908;2022-12-29T10:50:37;7.30;92.50
21163;DHT22;10739;52.198;20.908;2022-12-29T10:53:15;7.40;92.30
21163;DHT22;10739;52.198;20.908;2022-12-29T10:55:49;7.50;91.10
21163;DHT22;10739;52.198;20.908;2022-12-29T10:58:17;7.50;91.40
21163;DHT22;10739;52.198;20.908;2022-12-29T11:00:51;7.60;91.50
21163;DHT22;10739;52.198;20.908;2022-12-29T11:03:36;7.60;90.70
21163;DHT22;10739;52.198;20.908;2022-12-29T11:06:25;7.60;90.30
21163;DHT22;10739;52.198;20.908;2022-12-29T11:08:57;7.70;90.40
21163;DHT22;10739;52.198;20.908;2022-12-29T11:11:33;7.70;90.20
21163;DHT22;10739;52.198;20.908;2022-12-29T11:14:19;7.70;89.80
21163;DHT22;10739;52.198;20.908;2022-12-29T11:17:03;7.70;90.70
21163;DHT22;10739;52.198;20.908;2022-12-29T11:19:32;7.80;90.70
21163;DHT22;10739;52.198;20.908;2022-12-29T11:22:27;7.80;90.40
21163;DHT22;10739;52.198;20.908;2022-12-29T11:24:55;7.80;90.40
21163;DHT22;10739;52.198;20.908;2022-12-29T11:27:36;7.80;90.80
21163;DHT22;10739;52.198;20.908;2022-12-29T11:30:23;7.80;91.00
21163;DHT22;10739;52.198;20.908;2022-12-29T11:32:53;7.90;90.90
21163;DHT22;10739;52.198;20.908;2022-12-29T11:35:40;7.90;90.80
21163;DHT22;10739;52.198;20.908;2022-12-29T11:38:20;8.00;90.40
21163;DHT22;10739;52.198;20.908;2022-12-29T11:40:51;8.00;90.80
21163;DHT22;10739;52.198;20.908;2022-12-29T11:43:37;8.00;90.40
21163;DHT22;10739;52.198;20.908;2022-12-29T11:46:16;8.10;90.40
21163;DHT22;10739;52.198;20.908;2022-12-29T11:48:50;8.00;90.70
21163;DHT22;10739;52.198;20.908;2022-12-29T11:51:31;8.10;90.50
21163;DHT22;10739;52.198;20.908;2022-12-29T11:54:05;8.10;90.50
21163;DHT22;10739;52.198;20.908;2022-12-29T11:56:37;8.10;90.50
21163;DHT22;10739;52.198;20.908;2022-12-29T11:59:37;8.10;90.30
21163;DHT22;10739;52.198;20.908;2022-12-29T12:05:10;8.20;89.10
21163;DHT22;10739;52.198;20.908;2022-12-29T12:07:58;8.30;90.60
21163;DHT22;10739;52.198;20.908;2022-12-29T12:11:07;8.30;90.20
21163;DHT22;10739;52.198;20.908;2022-12-29T12:17:01;8.50;88.60
21163;DHT22;10739;52.198;20.908;2022-12-29T12:22:38;8.60;89.30
21163;DHT22;10739;52.198;20.908;2022-12-29T12:25:21;8.60;89.30
21163;DHT22;10739;52.198;20.908;2022-12-29T12:28:00;8.60;89.80
21163;DHT22;10739;52.198;20.908;2022-12-29T12:30:42;8.60;89.10
21163;DHT22;10739;52.198;20.908;2022-12-29T12:33:36;8.60;88.50
21163;DHT22;10739;52.198;20.908;2022-12-29T13:04:00;8.80;86.40
21163;DHT22;10739;52.198;20.908;2022-12-29T13:12:55;8.90;87.30
21163;DHT22;10739;52.198;20.908;2022-12-29T13:22:09;8.90;89.70
21163;DHT22;10739;52.198;20.908;2022-12-29T13:27:35;8.80;90.60
21163;DHT22;10739;52.198;20.908;2022-12-29T13:30:17;8.80;90.30
21163;DHT22;10739;52.198;20.908;2022-12-29T13:39:03;9.00;89.20
21163;DHT22;10739;52.198;20.908;2022-12-29T13:41:41;9.10;89.20
21163;DHT22;10739;52.198;20.908;2022-12-29T13:44:16;9.10;88.40
21163;DHT22;10739;52.198;20.908;2022-12-29T13:46:46;9.10;88.50
21163;DHT22;10739;52.198;20.908;2022-12-29T13:52:03;9.10;88.40
21163;DHT22;10739;52.198;20.908;2022-12-29T13:55:02;9.00;89.80
21163;DHT22;10739;52.198;20.908;2022-12-29T14:01:00;9.00;89.30
21163;DHT22;10739;52.198;20.908;2022-12-29T14:03:55;9.00;90.30
21163;DHT22;10739;52.198;20.908;2022-12-29T14:09:04;8.90;88.40
21163;DHT22;10739;52.198;20.908;2022-12-29T14:11:36;8.90;87.60
21163;DHT22;10739;52.198;20.908;2022-12-29T14:14:20;9.00;88.20
21163;DHT22;10739;52.198;20.908;2022-12-29T14:16:53;9.00;88.60
21163;DHT22;10739;52.198;20.908;2022-12-29T14:19:28;9.00;87.90
21163;DHT22;10739;52.198;20.908;2022-12-29T14:22:02;9.00;88.50
21163;DHT22;10739;52.198;20.908;2022-12-29T14:29:42;9.10;85.90
21163;DHT22;10739;52.198;20.908;2022-12-29T14:34:55;9.10;86.20
21163;DHT22;10739;52.198;20.908;2022-12-29T14:37:29;9.10;86.70
21163;DHT22;10739;52.198;20.908;2022-12-29T14:42:55;9.00;88.50
21163;DHT22;10739;52.198;20.908;2022-12-29T14:45:28;9.00;89.50
21163;DHT22;10739;52.198;20.908;2022-12-29T14:47:58;9.00;89.90
21163;DHT22;10739;52.198;20.908;2022-12-29T14:50:44;9.00;89.30
21163;DHT22;10739;52.198;20.908;2022-12-29T14:56:13;9.00;90.00
21163;DHT22;10739;52.198;20.908;2022-12-29T14:58:51;9.00;90.50
21163;DHT22;10739;52.198;20.908;2022-12-29T15:04:04;8.90;90.60
21163;DHT22;10739;52.198;20.908;2022-12-29T15:06:40;8.90;90.50
21163;DHT22;10739;52.198;20.908;2022-12-29T15:12:00;8.90;90.90
21163;DHT22;10739;52.198;20.908;2022-12-29T15:14:47;8.90;91.10
21163;DHT22;10739;52.198;20.908;2022-12-29T15:17:26;8.80;91.70
21163;DHT22;10739;52.198;20.908;2022-12-29T15:20:14;8.80;92.00
21163;DHT22;10739;52.198;20.908;2022-12-29T15:23:00;8.80;91.60
21163;DHT22;10739;52.198;20.908;2022-12-29T15:25:30;8.80;91.70
21163;DHT22;10739;52.198;20.908;2022-12-29T15:28:02;8.80;91.90
21163;DHT22;10739;52.198;20.908;2022-12-29T15:30:31;8.80;91.90
21163;DHT22;10739;52.198;20.908;2022-12-29T15:32:58;8.80;91.70
21163;DHT22;10739;52.198;20.908;2022-12-29T15:37:57;8.80;91.80
21163;DHT22;10739;52.198;20.908;2022-12-29T15:40:25;8.80;91.80
21163;DHT22;10739;52.198;20.908;2022-12-29T15:45:34;8.80;91.80
21163;DHT22;10739;52.198;20.908;2022-12-29T15:48:02;8.70;91.80
21163;DHT22;10739;52.198;20.908;2022-12-29T15:50:31;8.70;92.10
21163;DHT22;10739;52.198;20.908;2022-12-29T15:53:00;8.70;92.10
21163;DHT22;10739;52.198;20.908;2022-12-29T15:55:40;8.70;92.50
21163;DHT22;10739;52.198;20.908;2022-12-29T15:58:26;8.70;92.40
21163;DHT22;10739;52.198;20.908;2022-12-29T16:00:59;8.60;92.80
21163;DHT22;10739;52.198;20.908;2022-12-29T16:03:31;8.60;92.70
21163;DHT22;10739;52.198;20.908;2022-12-29T16:06:10;8.60;93.00
21163;DHT22;10739;52.198;20.908;2022-12-29T16:12:06;8.60;93.40
21163;DHT22;10739;52.198;20.908;2022-12-29T16:14:43;8.60;93.40
21163;DHT22;10739;52.198;20.908;2022-12-29T16:17:19;8.50;94.00
21163;DHT22;10739;52.198;20.908;2022-12-29T16:19:50;8.40;94.30
21163;DHT22;10739;52.198;20.908;2022-12-29T16:22:38;8.40;95.10
21163;DHT22;10739;52.198;20.908;2022-12-29T16:27:43;8.30;95.30
21163;DHT22;10739;52.198;20.908;2022-12-29T16:30:30;8.30;95.90
21163;DHT22;10739;52.198;20.908;2022-12-29T16:33:03;8.20;95.60
21163;DHT22;10739;52.198;20.908;2022-12-29T16:35:46;8.30;95.50
21163;DHT22;10739;52.198;20.908;2022-12-29T16:38:32;8.20;96.20
21163;DHT22;10739;52.198;20.908;2022-12-29T16:41:02;8.30;95.90
21163;DHT22;10739;52.198;20.908;2022-12-29T16:43:34;8.30;95.70
21163;DHT22;10739;52.198;20.908;2022-12-29T16:46:36;8.30;96.10
21163;DHT22;10739;52.198;20.908;2022-12-29T16:49:15;8.40;95.80
21163;DHT22;10739;52.198;20.908;2022-12-29T16:51:43;8.40;95.70
21163;DHT22;10739;52.198;20.908;2022-12-29T16:54:25;8.50;95.30
21163;DHT22;10739;52.198;20.908;2022-12-29T16:56:59;8.50;95.00
21163;DHT22;10739;52.198;20.908;2022-12-29T16:59:38;8.60;94.40
21163;DHT22;10739;52.198;20.908;2022-12-29T17:02:15;8.70;94.20
21163;DHT22;10739;52.198;20.908;2022-12-29T17:04:45;8.70;94.10
21163;DHT22;10739;52.198;20.908;2022-12-29T17:07:22;8.80;93.70
21163;DHT22;10739;52.198;20.908;2022-12-29T17:09:51;8.80;93.90
21163;DHT22;10739;52.198;20.908;2022-12-29T17:12:25;8.80;94.00
21163;DHT22;10739;52.198;20.908;2022-12-29T17:14:55;8.80;93.30
21163;DHT22;10739;52.198;20.908;2022-12-29T17:17:33;8.80;94.00
21163;DHT22;10739;52.198;20.908;2022-12-29T17:20:14;8.80;93.90
21163;DHT22;10739;52.198;20.908;2022-12-29T17:22:48;8.70;94.50
21163;DHT22;10739;52.198;20.908;2022-12-29T17:25:18;8.70;94.90
21163;DHT22;10739;52.198;20.908;2022-12-29T17:27:55;8.70;94.60
21163;DHT22;10739;52.198;20.908;2022-12-29T17:30:28;8.70;94.50
21163;DHT22;10739;52.198;20.908;2022-12-29T17:33:05;8.70;94.50
21163;DHT22;10739;52.198;20.908;2022-12-29T17:35:35;8.60;94.90
21163;DHT22;10739;52.198;20.908;2022-12-29T17:38:02;8.60;94.90
21163;DHT22;10739;52.198;20.908;2022-12-29T17:40:31;8.60;95.20
21163;DHT22;10739;52.198;20.908;2022-12-29T17:42:59;8.60;94.80
21163;DHT22;10739;52.198;20.908;2022-12-29T17:45:28;8.60;95.10
21163;DHT22;10739;52.198;20.908;2022-12-29T17:47:56;8.60;95.00
21163;DHT22;10739;52.198;20.908;2022-12-29T17:50:28;8.60;95.40
21163;DHT22;10739;52.198;20.908;2022-12-29T17:53:01;8.50;95.90
21163;DHT22;10739;52.198;20.908;2022-12-29T17:55:30;8.50;95.60
21163;DHT22;10739;52.198;20.908;2022-12-29T17:57:57;8.50;95.50
21163;DHT22;10739;52.198;20.908;2022-12-29T18:00:26;8.50;95.90
21163;DHT22;10739;52.198;20.908;2022-12-29T18:02:56;8.50;95.40
21163;DHT22;10739;52.198;20.908;2022-12-29T18:05:29;8.50;96.10
21163;DHT22;10739;52.198;20.908;2022-12-29T18:07:59;8.50;96.20
21163;DHT22;10739;52.198;20.908;2022-12-29T18:10:28;8.40;96.70
21163;DHT22;10739;52.198;20.908;2022-12-29T18:12:59;8.40;97.10
21163;DHT22;10739;52.198;20.908;2022-12-29T18:15:30;8.40;96.90
21163;DHT22;10739;52.198;20.908;2022-12-29T18:18:14;8.40;97.00
21163;DHT22;10739;52.198;20.908;2022-12-29T18:20:43;8.30;97.10
21163;DHT22;10739;52.198;20.908;2022-12-29T18:23:24;8.30;97.30
21163;DHT22;10739;52.198;20.908;2022-12-29T18:28:25;8.30;97.40
21163;DHT22;10739;52.198;20.908;2022-12-29T18:30:54;8.30;97.00
21163;DHT22;10739;52.198;20.908;2022-12-29T18:33:24;8.30;97.30
21163;DHT22;10739;52.198;20.908;2022-12-29T18:35:59;8.30;97.30
21163;DHT22;10739;52.198;20.908;2022-12-29T18:38:41;8.30;97.40
21163;DHT22;10739;52.198;20.908;2022-12-29T18:41:17;8.20;97.70
21163;DHT22;10739;52.198;20.908;2022-12-29T18:43:49;8.20;97.60
21163;DHT22;10739;52.198;20.908;2022-12-29T18:46:19;8.20;97.60
21163;DHT22;10739;52.198;20.908;2022-12-29T18:48:46;8.20;97.50
21163;DHT22;10739;52.198;20.908;2022-12-29T18:51:18;8.10;97.80
21163;DHT22;10739;52.198;20.908;2022-12-29T18:53:45;8.10;98.30
21163;DHT22;10739;52.198;20.908;2022-12-29T18:56:13;8.10;98.20
21163;DHT22;10739;52.198;20.908;2022-12-29T18:58:39;8.10;98.30
21163;DHT22;10739;52.198;20.908;2022-12-29T19:01:09;8.10;98.00
21163;DHT22;10739;52.198;20.908;2022-12-29T19:03:44;8.10;97.80
21163;DHT22;10739;52.198;20.908;2022-12-29T19:06:10;8.10;97.90
21163;DHT22;10739;52.198;20.908;2022-12-29T19:08:36;8.10;98.20
21163;DHT22;10739;52.198;20.908;2022-12-29T19:11:03;8.10;97.80
21163;DHT22;10739;52.198;20.908;2022-12-29T19:13:30;8.10;98.00
21163;DHT22;10739;52.198;20.908;2022-12-29T19:15:57;8.10;98.10
21163;DHT22;10739;52.198;20.908;2022-12-29T19:18:25;8.10;97.80
21163;DHT22;10739;52.198;20.908;2022-12-29T19:20:54;8.20;97.80
21163;DHT22;10739;52.198;20.908;2022-12-29T19:23:25;8.20;97.60
21163;DHT22;10739;52.198;20.908;2022-12-29T19:25:55;8.20;97.60
21163;DHT22;10739;52.198;20.908;2022-12-29T19:28:24;8.20;97.90
21163;DHT22;10739;52.198;20.908;2022-12-29T19:30:53;8.20;97.30
21163;DHT22;10739;52.198;20.908;2022-12-29T19:33:23;8.20;97.50
21163;DHT22;10739;52.198;20.908;2022-12-29T19:35:50;8.20;97.50
21163;DHT22;10739;52.198;20.908;2022-12-29T19:38:18;8.30;97.20